sensor_id;sensor_type;location;lat;lon;timestamp;pressure;altitude;pressure_sealevel;temperature;humidity
41140;BME280;26881;48.784;9.192;2022-09-17T00:04:21;98233.19;;;12.63;73.09
41140;BME280;26881;48.784;9.192;2022-09-17T00:09:43;98243.06;;;12.59;72.99
41140;BME280;26881;48.784;9.192;2022-09-17T00:15:05;98252.53;;;12.49;73.40
41140;BME280;26881;48.784;9.192;2022-09-17T00:20:27;98248.75;;;12.53;73.46
41140;BME280;26881;48.784;9.192;2022-09-17T00:25:49;98235.53;;;12.55;73.01
41140;BME280;26881;48.784;9.192;2022-09-17T00:31:11;98246.47;;;12.49;72.85
41140;BME280;26881;48.784;9.192;2022-09-17T00:36:34;98253.09;;;12.41;73.14
41140;BME280;26881;48.784;9.192;2022-09-17T00:41:57;98248.47;;;12.45;72.73
41140;BME280;26881;48.784;9.192;2022-09-17T00:52:44;98235.13;;;12.48;72.17
41140;BME280;26881;48.784;9.192;2022-09-17T00:58:09;98240.16;;;12.51;72.93
41140;BME280;26881;48.784;9.192;2022-09-17T01:03:31;98246.91;;;12.42;72.73
41140;BME280;26881;48.784;9.192;2022-09-17T01:32:24;98259.16;;;12.18;73.66
41140;BME280;26881;48.784;9.192;2022-09-17T01:38:17;98274.88;;;12.18;74.58
41140;BME280;26881;48.784;9.192;2022-09-17T01:43:51;98269.22;;;12.24;74.55
41140;BME280;26881;48.784;9.192;2022-09-17T01:49:18;98274.00;;;12.30;74.14
41140;BME280;26881;48.784;9.192;2022-09-17T01:54:46;98269.47;;;12.32;74.31
41140;BME280;26881;48.784;9.192;2022-09-17T02:00:11;98280.31;;;12.28;73.84
41140;BME280;26881;48.784;9.192;2022-09-17T02:05:40;98273.50;;;12.25;74.22
41140;BME280;26881;48.784;9.192;2022-09-17T02:11:09;98282.31;;;12.24;74.19
41140;BME280;26881;48.784;9.192;2022-09-17T02:16:34;98285.78;;;12.25;73.87
41140;BME280;26881;48.784;9.192;2022-09-17T02:22:23;98276.75;;;12.29;73.51
41140;BME280;26881;48.784;9.192;2022-09-17T02:28:07;98280.53;;;12.12;74.04
41140;BME280;26881;48.784;9.192;2022-09-17T02:33:33;98279.16;;;12.19;73.62
41140;BME280;26881;48.784;9.192;2022-09-17T02:39:00;98270.28;;;12.09;73.63
41140;BME280;26881;48.784;9.192;2022-09-17T02:44:29;98270.69;;;12.15;73.10
41140;BME280;26881;48.784;9.192;2022-09-17T02:56:08;98253.34;;;12.26;73.06
41140;BME280;26881;48.784;9.192;2022-09-17T03:01:36;98257.75;;;12.25;72.32
41140;BME280;26881;48.784;9.192;2022-09-17T03:07:05;98259.47;;;12.13;73.17
41140;BME280;26881;48.784;9.192;2022-09-17T03:12:29;98257.69;;;12.14;72.86
41140;BME280;26881;48.784;9.192;2022-09-17T03:17:51;98256.09;;;12.11;73.14
41140;BME280;26881;48.784;9.192;2022-09-17T03:23:14;98261.38;;;11.98;73.36
41140;BME280;26881;48.784;9.192;2022-09-17T03:28:35;98264.34;;;11.94;73.45
41140;BME280;26881;48.784;9.192;2022-09-17T03:33:57;98266.53;;;11.87;73.75
41140;BME280;26881;48.784;9.192;2022-09-17T03:39:19;98274.78;;;11.81;74.04
41140;BME280;26881;48.784;9.192;2022-09-17T03:44:41;98278.69;;;11.88;73.96
41140;BME280;26881;48.784;9.192;2022-09-17T03:50:06;98283.47;;;11.81;73.64
41140;BME280;26881;48.784;9.192;2022-09-17T03:55:28;98288.50;;;11.72;74.69
41140;BME280;26881;48.784;9.192;2022-09-17T04:00:50;98279.50;;;11.76;73.99
41140;BME280;26881;48.784;9.192;2022-09-17T04:06:13;98284.75;;;11.76;74.28
41140;BME280;26881;48.784;9.192;2022-09-17T04:11:35;98297.84;;;11.89;73.49
41140;BME280;26881;48.784;9.192;2022-09-17T04:16:57;98283.59;;;11.80;73.47
41140;BME280;26881;48.784;9.192;2022-09-17T04:22:19;98291.63;;;11.77;73.06
41140;BME280;26881;48.784;9.192;2022-09-17T04:27:42;98284.72;;;11.63;73.86
41140;BME280;26881;48.784;9.192;2022-09-17T04:33:04;98302.44;;;11.72;72.79
41140;BME280;26881;48.784;9.192;2022-09-17T04:38:26;98302.75;;;11.55;73.10
41140;BME280;26881;48.784;9.192;2022-09-17T04:43:48;98313.22;;;11.68;72.82
41140;BME280;26881;48.784;9.192;2022-09-17T04:49:10;98326.13;;;11.71;72.78
41140;BME280;26881;48.784;9.192;2022-09-17T04:54:32;98328.41;;;11.63;72.00
41140;BME280;26881;48.784;9.192;2022-09-17T04:59:53;98325.41;;;11.69;72.06
41140;BME280;26881;48.784;9.192;2022-09-17T05:05:17;98333.34;;;11.67;72.07
41140;BME280;26881;48.784;9.192;2022-09-17T05:10:39;98334.63;;;11.62;72.16
41140;BME280;26881;48.784;9.192;2022-09-17T05:16:00;98338.72;;;11.66;72.29
41140;BME280;26881;48.784;9.192;2022-09-17T05:21:23;98328.41;;;11.63;71.91
41140;BME280;26881;48.784;9.192;2022-09-17T05:26:44;98335.22;;;11.52;71.80
41140;BME280;26881;48.784;9.192;2022-09-17T05:32:06;98336.19;;;11.64;72.01
41140;BME280;26881;48.784;9.192;2022-09-17T05:37:28;98328.53;;;11.74;71.35
41140;BME280;26881;48.784;9.192;2022-09-17T05:42:50;98346.44;;;11.67;71.93
41140;BME280;26881;48.784;9.192;2022-09-17T05:48:13;98340.47;;;11.65;71.97
41140;BME280;26881;48.784;9.192;2022-09-17T05:53:35;98342.03;;;11.68;72.51
41140;BME280;26881;48.784;9.192;2022-09-17T05:58:57;98347.72;;;11.62;72.27
41140;BME280;26881;48.784;9.192;2022-09-17T06:04:19;98358.31;;;11.73;71.66
41140;BME280;26881;48.784;9.192;2022-09-17T06:09:40;98364.81;;;11.80;71.42
41140;BME280;26881;48.784;9.192;2022-09-17T06:15:03;98369.63;;;11.73;71.30
41140;BME280;26881;48.784;9.192;2022-09-17T06:20:25;98365.25;;;11.87;71.21
41140;BME280;26881;48.784;9.192;2022-09-17T06:25:59;98368.38;;;11.79;71.57
41140;BME280;26881;48.784;9.192;2022-09-17T06:31:21;98380.31;;;11.83;71.30
41140;BME280;26881;48.784;9.192;2022-09-17T06:36:43;98380.03;;;11.88;70.71
41140;BME280;26881;48.784;9.192;2022-09-17T06:42:05;98391.88;;;11.93;70.79
41140;BME280;26881;48.784;9.192;2022-09-17T06:47:27;98392.88;;;12.05;69.58
41140;BME280;26881;48.784;9.192;2022-09-17T06:52:51;98406.47;;;11.97;70.13
41140;BME280;26881;48.784;9.192;2022-09-17T06:58:13;98404.81;;;11.96;69.98
41140;BME280;26881;48.784;9.192;2022-09-17T07:03:36;98401.19;;;11.85;69.83
41140;BME280;26881;48.784;9.192;2022-09-17T07:08:59;98397.75;;;11.84;70.67
41140;BME280;26881;48.784;9.192;2022-09-17T07:14:20;98418.22;;;11.92;69.83
41140;BME280;26881;48.784;9.192;2022-09-17T07:19:45;98421.50;;;11.68;73.67
41140;BME280;26881;48.784;9.192;2022-09-17T07:25:07;98423.88;;;11.58;75.63
41140;BME280;26881;48.784;9.192;2022-09-17T07:30:29;98429.13;;;11.58;78.73
41140;BME280;26881;48.784;9.192;2022-09-17T07:35:59;98429.97;;;11.59;79.71
41140;BME280;26881;48.784;9.192;2022-09-17T07:41:22;98428.75;;;11.37;81.55
41140;BME280;26881;48.784;9.192;2022-09-17T07:46:43;98433.31;;;11.34;84.89
41140;BME280;26881;48.784;9.192;2022-09-17T07:52:05;98435.78;;;11.23;84.42
41140;BME280;26881;48.784;9.192;2022-09-17T07:57:27;98448.28;;;11.32;83.39
41140;BME280;26881;48.784;9.192;2022-09-17T08:02:53;98444.00;;;11.31;84.93
41140;BME280;26881;48.784;9.192;2022-09-17T08:08:15;98445.63;;;11.46;84.63
41140;BME280;26881;48.784;9.192;2022-09-17T08:13:42;98463.78;;;11.49;82.12
41140;BME280;26881;48.784;9.192;2022-09-17T08:19:04;98466.13;;;11.39;83.88
41140;BME280;26881;48.784;9.192;2022-09-17T08:24:25;98459.00;;;11.42;83.73
41140;BME280;26881;48.784;9.192;2022-09-17T08:29:48;98457.56;;;11.50;83.38
41140;BME280;26881;48.784;9.192;2022-09-17T08:35:10;98453.38;;;11.48;83.69
41140;BME280;26881;48.784;9.192;2022-09-17T08:40:36;98462.75;;;11.65;82.15
41140;BME280;26881;48.784;9.192;2022-09-17T08:46:03;98451.72;;;11.87;81.16
41140;BME280;26881;48.784;9.192;2022-09-17T08:57:38;98474.00;;;11.94;79.44
41140;BME280;26881;48.784;9.192;2022-09-17T09:03:24;98479.53;;;11.89;79.50
41140;BME280;26881;48.784;9.192;2022-09-17T09:08:58;98470.34;;;12.09;79.27
41140;BME280;26881;48.784;9.192;2022-09-17T09:14:27;98474.78;;;12.21;76.47
41140;BME280;26881;48.784;9.192;2022-09-17T09:19:50;98468.47;;;12.24;77.34
41140;BME280;26881;48.784;9.192;2022-09-17T09:36:27;98463.88;;;12.40;74.73
41140;BME280;26881;48.784;9.192;2022-09-17T09:42:04;98464.47;;;12.44;75.18
41140;BME280;26881;48.784;9.192;2022-09-17T09:47:39;98465.88;;;12.50;74.47
41140;BME280;26881;48.784;9.192;2022-09-17T09:53:18;98467.53;;;12.63;74.10
41140;BME280;26881;48.784;9.192;2022-09-17T09:58:44;98470.56;;;12.57;73.26
41140;BME280;26881;48.784;9.192;2022-09-17T10:04:16;98474.88;;;12.46;72.93
41140;BME280;26881;48.784;9.192;2022-09-17T10:09:44;98473.72;;;12.62;72.06
41140;BME280;26881;48.784;9.192;2022-09-17T10:15:27;98467.00;;;12.71;70.90
41140;BME280;26881;48.784;9.192;2022-09-17T10:20:59;98459.88;;;12.73;71.00
41140;BME280;26881;48.784;9.192;2022-09-17T10:26:32;98457.53;;;12.81;69.77
41140;BME280;26881;48.784;9.192;2022-09-17T10:31:56;98454.25;;;13.03;67.60
41140;BME280;26881;48.784;9.192;2022-09-17T10:37:45;98451.13;;;13.22;65.61
41140;BME280;26881;48.784;9.192;2022-09-17T10:43:17;98434.69;;;13.44;65.79
41140;BME280;26881;48.784;9.192;2022-09-17T10:48:45;98443.63;;;13.42;65.64
41140;BME280;26881;48.784;9.192;2022-09-17T11:00:06;98445.47;;;13.77;61.99
41140;BME280;26881;48.784;9.192;2022-09-17T11:34:34;98409.81;;;13.97;59.74
41140;BME280;26881;48.784;9.192;2022-09-17T11:45:37;98406.44;;;13.95;58.92
41140;BME280;26881;48.784;9.192;2022-09-17T11:51:33;98394.16;;;14.06;59.33
41140;BME280;26881;48.784;9.192;2022-09-17T11:57:15;98396.78;;;14.06;57.46
41140;BME280;26881;48.784;9.192;2022-09-17T12:08:24;98378.28;;;14.42;56.63
41140;BME280;26881;48.784;9.192;2022-09-17T12:13:51;98369.56;;;14.30;56.90
41140;BME280;26881;48.784;9.192;2022-09-17T12:19:33;98384.00;;;14.13;62.31
41140;BME280;26881;48.784;9.192;2022-09-17T12:24:56;98390.72;;;13.70;69.64
41140;BME280;26881;48.784;9.192;2022-09-17T12:30:19;98410.44;;;13.41;67.75
41140;BME280;26881;48.784;9.192;2022-09-17T12:41:40;98385.44;;;13.59;68.26
41140;BME280;26881;48.784;9.192;2022-09-17T12:52:37;98404.13;;;13.79;67.36
41140;BME280;26881;48.784;9.192;2022-09-17T13:09:50;98429.91;;;13.38;67.24
41140;BME280;26881;48.784;9.192;2022-09-17T13:15:57;98439.59;;;13.12;69.19
41140;BME280;26881;48.784;9.192;2022-09-17T13:21:29;98442.38;;;12.98;72.46
41140;BME280;26881;48.784;9.192;2022-09-17T13:26:53;98440.78;;;13.08;71.60
41140;BME280;26881;48.784;9.192;2022-09-17T13:37:57;98431.88;;;12.98;72.40
41140;BME280;26881;48.784;9.192;2022-09-17T13:43:22;98433.25;;;13.03;72.67
41140;BME280;26881;48.784;9.192;2022-09-17T13:48:49;98420.06;;;13.16;72.52
41140;BME280;26881;48.784;9.192;2022-09-17T13:54:14;98428.97;;;13.26;72.16
41140;BME280;26881;48.784;9.192;2022-09-17T13:59:37;98421.28;;;13.36;71.28
41140;BME280;26881;48.784;9.192;2022-09-17T14:05:30;98419.13;;;13.65;71.34
41140;BME280;26881;48.784;9.192;2022-09-17T14:10:54;98403.59;;;13.62;70.33
41140;BME280;26881;48.784;9.192;2022-09-17T14:33:13;98405.38;;;13.97;68.09
41140;BME280;26881;48.784;9.192;2022-09-17T14:38:42;98390.81;;;14.04;67.13
41140;BME280;26881;48.784;9.192;2022-09-17T14:44:11;98395.81;;;14.07;66.43
41140;BME280;26881;48.784;9.192;2022-09-17T14:49:36;98394.66;;;14.23;66.42
41140;BME280;26881;48.784;9.192;2022-09-17T14:55:29;98390.59;;;14.30;65.88
41140;BME280;26881;48.784;9.192;2022-09-17T15:00:52;98383.31;;;14.33;66.60
41140;BME280;26881;48.784;9.192;2022-09-17T15:06:21;98392.75;;;14.36;65.80
41140;BME280;26881;48.784;9.192;2022-09-17T15:11:44;98390.81;;;14.38;64.17
41140;BME280;26881;48.784;9.192;2022-09-17T15:17:13;98389.63;;;14.31;64.70
41140;BME280;26881;48.784;9.192;2022-09-17T15:22:38;98387.00;;;14.08;65.20
41140;BME280;26881;48.784;9.192;2022-09-17T15:28:16;98388.66;;;14.09;64.59
41140;BME280;26881;48.784;9.192;2022-09-17T15:33:41;98383.66;;;14.06;63.24
41140;BME280;26881;48.784;9.192;2022-09-17T15:39:39;98387.22;;;14.05;63.18
41140;BME280;26881;48.784;9.192;2022-09-17T15:45:18;98394.19;;;14.18;63.36
41140;BME280;26881;48.784;9.192;2022-09-17T15:51:23;98397.97;;;14.02;62.70
41140;BME280;26881;48.784;9.192;2022-09-17T15:56:54;98376.69;;;14.05;63.32
41140;BME280;26881;48.784;9.192;2022-09-17T16:02:29;98373.84;;;14.08;64.16
41140;BME280;26881;48.784;9.192;2022-09-17T16:07:51;98382.19;;;14.02;64.15
41140;BME280;26881;48.784;9.192;2022-09-17T16:13:13;98376.59;;;14.07;63.52
41140;BME280;26881;48.784;9.192;2022-09-17T16:18:34;98392.00;;;14.00;63.30
41140;BME280;26881;48.784;9.192;2022-09-17T16:23:57;98387.22;;;14.05;62.97
41140;BME280;26881;48.784;9.192;2022-09-17T16:29:18;98394.41;;;14.15;62.03
41140;BME280;26881;48.784;9.192;2022-09-17T16:34:41;98399.19;;;14.09;62.18
41140;BME280;26881;48.784;9.192;2022-09-17T16:40:03;98409.84;;;14.08;63.11
41140;BME280;26881;48.784;9.192;2022-09-17T16:45:25;98401.31;;;14.04;62.26
41140;BME280;26881;48.784;9.192;2022-09-17T16:50:49;98395.34;;;14.02;63.53
41140;BME280;26881;48.784;9.192;2022-09-17T16:56:13;98399.63;;;13.92;64.22
41140;BME280;26881;48.784;9.192;2022-09-17T17:01:35;98395.31;;;13.91;63.37
41140;BME280;26881;48.784;9.192;2022-09-17T17:06:57;98404.28;;;13.88;65.05
41140;BME280;26881;48.784;9.192;2022-09-17T17:12:19;98438.59;;;13.98;64.41
41140;BME280;26881;48.784;9.192;2022-09-17T17:17:41;98451.16;;;13.70;70.51
41140;BME280;26881;48.784;9.192;2022-09-17T17:23:03;98449.19;;;13.50;71.54
41140;BME280;26881;48.784;9.192;2022-09-17T17:28:24;98426.53;;;12.99;76.99
41140;BME280;26881;48.784;9.192;2022-09-17T17:33:46;98421.06;;;12.53;84.41
41140;BME280;26881;48.784;9.192;2022-09-17T17:39:08;98425.75;;;12.60;82.98
41140;BME280;26881;48.784;9.192;2022-09-17T17:44:30;98444.94;;;12.61;84.21
41140;BME280;26881;48.784;9.192;2022-09-17T17:49:52;98454.63;;;12.48;84.12
41140;BME280;26881;48.784;9.192;2022-09-17T17:55:15;98463.44;;;12.59;86.41
41140;BME280;26881;48.784;9.192;2022-09-17T18:00:37;98470.56;;;12.70;82.93
41140;BME280;26881;48.784;9.192;2022-09-17T18:05:58;98468.19;;;12.54;82.08
41140;BME280;26881;48.784;9.192;2022-09-17T18:11:21;98462.38;;;12.49;83.18
41140;BME280;26881;48.784;9.192;2022-09-17T18:16:43;98466.78;;;12.49;80.14
41140;BME280;26881;48.784;9.192;2022-09-17T18:22:05;98473.19;;;12.57;80.24
41140;BME280;26881;48.784;9.192;2022-09-17T18:27:27;98489.47;;;12.50;83.23
41140;BME280;26881;48.784;9.192;2022-09-17T18:32:48;98486.94;;;12.35;85.60
41140;BME280;26881;48.784;9.192;2022-09-17T18:38:10;98489.75;;;12.32;85.00
41140;BME280;26881;48.784;9.192;2022-09-17T18:43:33;98500.78;;;12.37;84.37
41140;BME280;26881;48.784;9.192;2022-09-17T18:48:56;98501.63;;;12.25;85.38
41140;BME280;26881;48.784;9.192;2022-09-17T18:54:18;98503.41;;;12.25;86.08
41140;BME280;26881;48.784;9.192;2022-09-17T18:59:40;98505.13;;;11.98;88.88
41140;BME280;26881;48.784;9.192;2022-09-17T19:05:02;98550.22;;;12.04;89.71
41140;BME280;26881;48.784;9.192;2022-09-17T19:10:24;98543.28;;;12.02;90.43
41140;BME280;26881;48.784;9.192;2022-09-17T19:15:47;98604.69;;;12.13;84.07
41140;BME280;26881;48.784;9.192;2022-09-17T19:26:33;98580.03;;;11.32;73.83
41140;BME280;26881;48.784;9.192;2022-09-17T19:31:54;98585.84;;;11.23;80.54
41140;BME280;26881;48.784;9.192;2022-09-17T19:37:16;98585.41;;;11.16;82.54
41140;BME280;26881;48.784;9.192;2022-09-17T19:42:38;98582.47;;;10.92;85.55
41140;BME280;26881;48.784;9.192;2022-09-17T19:48:00;98594.03;;;10.74;88.38
41140;BME280;26881;48.784;9.192;2022-09-17T19:53:23;98609.31;;;10.82;84.72
41140;BME280;26881;48.784;9.192;2022-09-17T19:58:45;98614.06;;;10.89;84.42
41140;BME280;26881;48.784;9.192;2022-09-17T20:04:07;98626.88;;;10.94;82.92
41140;BME280;26881;48.784;9.192;2022-09-17T20:09:30;98623.84;;;10.71;85.47
41140;BME280;26881;48.784;9.192;2022-09-17T20:14:53;98613.88;;;10.48;87.67
41140;BME280;26881;48.784;9.192;2022-09-17T20:20:15;98616.03;;;10.55;85.69
41140;BME280;26881;48.784;9.192;2022-09-17T20:25:37;98613.88;;;10.48;86.77
41140;BME280;26881;48.784;9.192;2022-09-17T20:31:01;98617.47;;;10.61;86.72
41140;BME280;26881;48.784;9.192;2022-09-17T20:36:26;98615.91;;;10.73;84.19
41140;BME280;26881;48.784;9.192;2022-09-17T20:41:48;98613.78;;;10.80;85.32
41140;BME280;26881;48.784;9.192;2022-09-17T20:47:10;98611.72;;;10.85;83.71
41140;BME280;26881;48.784;9.192;2022-09-17T20:52:32;98618.75;;;10.99;83.13
41140;BME280;26881;48.784;9.192;2022-09-17T20:57:53;98614.72;;;10.93;82.81
41140;BME280;26881;48.784;9.192;2022-09-17T21:03:16;98632.88;;;11.10;82.49
41140;BME280;26881;48.784;9.192;2022-09-17T21:08:37;98651.00;;;10.99;82.40
41140;BME280;26881;48.784;9.192;2022-09-17T21:14:00;98642.03;;;11.03;80.79
41140;BME280;26881;48.784;9.192;2022-09-17T21:19:22;98648.63;;;10.80;83.20
41140;BME280;26881;48.784;9.192;2022-09-17T21:24:45;98649.81;;;10.74;85.36
41140;BME280;26881;48.784;9.192;2022-09-17T21:30:08;98651.63;;;10.58;86.48
41140;BME280;26881;48.784;9.192;2022-09-17T21:35:32;98654.31;;;10.72;86.25
41140;BME280;26881;48.784;9.192;2022-09-17T21:40:58;98661.31;;;11.16;82.43
41140;BME280;26881;48.784;9.192;2022-09-17T21:46:23;98650.09;;;11.14;86.94
41140;BME280;26881;48.784;9.192;2022-09-17T21:51:45;98660.16;;;11.06;86.13
41140;BME280;26881;48.784;9.192;2022-09-17T21:57:06;98660.84;;;11.10;85.73
41140;BME280;26881;48.784;9.192;2022-09-17T22:02:28;98653.59;;;10.85;86.41
41140;BME280;26881;48.784;9.192;2022-09-17T22:07:50;98655.69;;;11.08;85.70
41140;BME280;26881;48.784;9.192;2022-09-17T22:13:12;98661.00;;;11.21;85.12
41140;BME280;26881;48.784;9.192;2022-09-17T22:18:36;98671.66;;;11.18;83.55
41140;BME280;26881;48.784;9.192;2022-09-17T22:24:00;98662.97;;;11.32;82.09
41140;BME280;26881;48.784;9.192;2022-09-17T22:29:23;98657.56;;;11.35;81.42
41140;BME280;26881;48.784;9.192;2022-09-17T22:34:45;98653.81;;;11.39;81.10
41140;BME280;26881;48.784;9.192;2022-09-17T22:40:07;98660.66;;;11.27;81.05
41140;BME280;26881;48.784;9.192;2022-09-17T22:45:29;98653.75;;;11.26;80.09
41140;BME280;26881;48.784;9.192;2022-09-17T22:50:51;98646.44;;;11.31;80.18
41140;BME280;26881;48.784;9.192;2022-09-17T22:56:15;98636.72;;;11.33;80.59
41140;BME280;26881;48.784;9.192;2022-09-17T23:01:37;98639.88;;;11.38;80.70
41140;BME280;26881;48.784;9.192;2022-09-17T23:06:59;98642.50;;;11.38;79.91
41140;BME280;26881;48.784;9.192;2022-09-17T23:12:21;98644.19;;;11.39;80.58
41140;BME280;26881;48.784;9.192;2022-09-17T23:17:43;98643.34;;;11.39;79.07
41140;BME280;26881;48.784;9.192;2022-09-17T23:23:05;98652.78;;;11.42;79.36
41140;BME280;26881;48.784;9.192;2022-09-17T23:28:26;98648.69;;;11.52;79.41
41140;BME280;26881;48.784;9.192;2022-09-17T23:33:48;98646.34;;;11.47;78.78
41140;BME280;26881;48.784;9.192;2022-09-17T23:39:11;98644.66;;;11.46;78.20
41140;BME280;26881;48.784;9.192;2022-09-17T23:44:32;98638.09;;;11.53;77.10
41140;BME280;26881;48.784;9.192;2022-09-17T23:49:54;98648.84;;;11.49;77.41
41140;BME280;26881;48.784;9.192;2022-09-17T23:55:16;98646.50;;;11.44;75.75
